createdAt,value
2022-12-13T00:04:40.262Z,99721.94
2022-12-13T00:09:43.734Z,99714.94
2022-12-13T00:14:45.999Z,99709.13
2022-12-13T00:19:49.034Z,99738.03
2022-12-13T00:24:51.531Z,99739.88
2022-12-13T00:29:53.787Z,99719.47
2022-12-13T00:34:56.012Z,99721.78
2022-12-13T00:39:58.387Z,99701.97
2022-12-13T00:45:00.664Z,99730.25
2022-12-13T00:50:04.248Z,99712.06
2022-12-13T00:55:07.267Z,99714.16
2022-12-13T01:00:10.454Z,99744.69
2022-12-13T01:05:24.036Z,99740.13
2022-12-13T01:10:37.738Z,99748.81
2022-12-13T01:15:47.837Z,99695.78
2022-12-13T01:20:59.728Z,99754.41
2022-12-13T01:26:07.066Z,99750.47
2022-12-13T01:31:11.940Z,99750.66
2022-12-13T01:36:17.249Z,99730.47
2022-12-13T01:41:27.247Z,99726.72
2022-12-13T01:46:31.918Z,99753.75
2022-12-13T01:51:44.981Z,99727.53
2022-12-13T01:56:53.830Z,99710.44
2022-12-13T02:02:03.784Z,99733.75
2022-12-13T02:07:07.587Z,99732.31
2022-12-13T02:12:10.068Z,99766.59
2022-12-13T02:17:49.549Z,99776.06
2022-12-13T02:23:36.026Z,99765.34
2022-12-13T02:28:47.423Z,99779.59
2022-12-13T02:34:17.506Z,99777.94
2022-12-13T02:39:30.389Z,99775.66
2022-12-13T02:44:42.590Z,99776.28
2022-12-13T02:49:49.633Z,99763.69
2022-12-13T02:54:53.984Z,99757.06
2022-12-13T02:59:58.838Z,99769.00
2022-12-13T03:05:57.743Z,99785.56
2022-12-13T03:11:14.260Z,99806.09
2022-12-13T03:16:26.081Z,99794.47
2022-12-13T03:21:28.929Z,99858.03
2022-12-13T03:26:31.382Z,99831.22
2022-12-13T03:31:33.949Z,99844.25
2022-12-13T03:36:36.378Z,99854.59
2022-12-13T03:41:38.820Z,99888.28
2022-12-13T03:46:41.264Z,99851.72
2022-12-13T03:51:43.699Z,99869.13
2022-12-13T03:56:46.053Z,99848.00
2022-12-13T04:01:49.037Z,99879.66
2022-12-13T04:06:51.363Z,99869.97
2022-12-13T04:12:12.319Z,99906.53
2022-12-13T04:17:14.715Z,99881.69
2022-12-13T04:22:23.269Z,99854.41
2022-12-13T04:27:26.887Z,99885.63
2022-12-13T04:32:29.262Z,99868.41
2022-12-13T04:37:31.929Z,99901.25
2022-12-13T04:42:34.620Z,99859.09
2022-12-13T04:47:36.892Z,99870.03
2022-12-13T04:52:40.086Z,99873.53
2022-12-13T04:57:42.599Z,99863.94
2022-12-13T05:02:44.984Z,99917.72
2022-12-13T05:07:47.264Z,99908.22
2022-12-13T05:12:49.586Z,99898.06
2022-12-13T05:17:51.978Z,99925.88
2022-12-13T05:22:59.331Z,99916.63
2022-12-13T05:28:09.149Z,99934.81
2022-12-13T05:33:25.008Z,99913.78
2022-12-13T05:38:27.446Z,99925.75
2022-12-13T05:43:43.156Z,99943.56
2022-12-13T05:48:46.038Z,99924.44
2022-12-13T05:53:53.073Z,99913.97
2022-12-13T05:58:55.894Z,99951.75
2022-12-13T06:03:58.290Z,99925.34
2022-12-13T06:09:00.812Z,99940.44
2022-12-13T06:14:03.100Z,99985.84
2022-12-13T06:19:05.522Z,99976.56
2022-12-13T06:24:09.226Z,99995.47
2022-12-13T06:29:11.719Z,100028.16
2022-12-13T06:34:15.465Z,99996.03
2022-12-13T06:39:18.188Z,100027.28
2022-12-13T06:44:20.620Z,100042.03
2022-12-13T06:49:22.827Z,100043.66
2022-12-13T06:54:25.142Z,100063.72
2022-12-13T06:59:27.526Z,100014.47
2022-12-13T07:04:31.103Z,100069.31
2022-12-13T07:09:33.953Z,100081.63
2022-12-13T07:14:40.713Z,100076.28
2022-12-13T07:19:44.306Z,100129.13
2022-12-13T07:24:46.890Z,100111.28
2022-12-13T07:29:49.417Z,100116.03
2022-12-13T07:34:51.722Z,100144.81
2022-12-13T07:40:02.651Z,100130.97
2022-12-13T07:45:06.413Z,100108.97
2022-12-13T07:50:13.842Z,100150.34
2022-12-13T07:55:33.018Z,100124.06
2022-12-13T08:00:40.902Z,100114.16
2022-12-13T08:05:48.636Z,100117.19
2022-12-13T08:10:51.135Z,100098.69
2022-12-13T08:15:59.578Z,100130.88
2022-12-13T08:21:23.964Z,100113.28
2022-12-13T08:26:29.348Z,100111.13
2022-12-13T08:31:34.061Z,100114.00
2022-12-13T08:36:36.442Z,100108.59
2022-12-13T08:41:39.425Z,100106.03
2022-12-13T08:46:42.046Z,100118.00
2022-12-13T08:51:44.306Z,100108.94
2022-12-13T08:56:46.486Z,100071.28
2022-12-13T09:01:53.726Z,100099.94
2022-12-13T09:06:56.868Z,100077.59
2022-12-13T09:12:11.091Z,100061.66
2022-12-13T09:17:26.418Z,100052.69
2022-12-13T09:22:33.553Z,100092.91
2022-12-13T09:27:39.980Z,100098.97
2022-12-13T09:32:43.943Z,100101.31
2022-12-13T09:37:46.450Z,100098.03
2022-12-13T09:43:08.280Z,100092.06
2022-12-13T09:48:22.319Z,100060.84
2022-12-13T09:53:25.865Z,100064.59
2022-12-13T09:58:37.641Z,100047.25
2022-12-13T10:03:44.660Z,100032.56
2022-12-13T10:08:59.256Z,100085.28
2022-12-13T10:14:22.293Z,100058.19
2022-12-13T10:19:41.400Z,100061.50
2022-12-13T10:24:54.716Z,100055.88
2022-12-13T10:30:01.282Z,100017.00
2022-12-13T10:35:38.427Z,100020.63
2022-12-13T10:40:45.764Z,100045.25
2022-12-13T10:46:00.003Z,100016.09
2022-12-13T10:51:09.560Z,100015.25
2022-12-13T10:56:12.388Z,99993.34
2022-12-13T11:01:22.541Z,100003.44
2022-12-13T11:06:27.137Z,100009.59
2022-12-13T11:11:30.939Z,99993.03
2022-12-13T11:16:38.023Z,99989.69
2022-12-13T11:21:40.297Z,99989.06
2022-12-13T11:26:53.928Z,100018.25
2022-12-13T11:32:02.995Z,100019.06
2022-12-13T11:37:05.266Z,100009.34
2022-12-13T11:42:25.822Z,100013.66
2022-12-13T11:47:36.395Z,99997.34
2022-12-13T11:52:50.254Z,99981.97
2022-12-13T11:59:01.127Z,99969.59
2022-12-13T12:03:59.604Z,99971.03
2022-12-13T12:09:05.101Z,99963.78
2022-12-13T12:14:36.889Z,99983.03
2022-12-13T12:19:41.432Z,99975.28
2022-12-13T12:24:52.238Z,99954.59
2022-12-13T12:30:08.367Z,99985.97
2022-12-13T12:35:45.799Z,99986.75
2022-12-13T12:41:16.025Z,99962.34
2022-12-13T12:47:01.573Z,99993.03
2022-12-13T12:52:21.898Z,99938.28
2022-12-13T12:57:51.315Z,99967.13
2022-12-13T13:02:56.313Z,99992.78
2022-12-13T13:08:14.782Z,99965.78
2022-12-13T13:13:35.711Z,99991.41
2022-12-13T13:18:49.883Z,99970.06
2022-12-13T13:24:10.816Z,99983.59
2022-12-13T13:29:27.767Z,99976.16
2022-12-13T13:34:43.385Z,99951.31
2022-12-13T13:40:02.033Z,99981.28
2022-12-13T13:45:21.054Z,99981.00
2022-12-13T13:50:46.558Z,99968.38
2022-12-13T13:56:16.746Z,99979.94
2022-12-13T14:01:31.222Z,99949.38
2022-12-13T14:06:51.714Z,99984.41
2022-12-13T14:12:30.387Z,99943.56
2022-12-13T14:17:54.253Z,99985.66
2022-12-13T14:23:21.480Z,100011.94
2022-12-13T14:28:45.029Z,100000.94
2022-12-13T14:33:48.323Z,99994.28
2022-12-13T14:39:00.811Z,100014.13
2022-12-13T14:44:27.363Z,100003.41
2022-12-13T14:49:48.702Z,99991.09
2022-12-13T14:54:58.085Z,99986.44
2022-12-13T15:00:21.134Z,99983.97
2022-12-13T15:05:51.084Z,100019.38
2022-12-13T15:11:08.068Z,100001.19
2022-12-13T15:16:26.132Z,100011.72
2022-12-13T15:21:28.465Z,99989.22
2022-12-13T15:26:32.748Z,99986.75
2022-12-13T15:31:35.137Z,100008.91
2022-12-13T15:36:39.178Z,99989.06
2022-12-13T15:41:49.789Z,100002.94
2022-12-13T15:46:53.717Z,100022.59
2022-12-13T15:51:58.022Z,100021.59
2022-12-13T15:57:00.198Z,100047.22
2022-12-13T16:02:06.803Z,100057.16
2022-12-13T16:07:22.997Z,100048.66
2022-12-13T16:13:01.163Z,100035.16
2022-12-13T16:18:19.887Z,100045.91
2022-12-13T16:23:29.169Z,100073.41
2022-12-13T16:28:31.550Z,100064.28
2022-12-13T16:33:34.434Z,100067.34
2022-12-13T16:38:37.408Z,100075.19
2022-12-13T16:44:02.131Z,100039.59
2022-12-13T16:49:18.218Z,100075.59
2022-12-13T16:54:24.639Z,100083.22
2022-12-13T16:59:28.613Z,100084.66
2022-12-13T17:04:30.847Z,100083.56
2022-12-13T17:09:35.515Z,100094.56
2022-12-13T17:14:37.867Z,100077.56
2022-12-13T17:19:40.124Z,100082.94
2022-12-13T17:24:42.437Z,100088.31
2022-12-13T17:29:44.964Z,100095.13
2022-12-13T17:34:47.269Z,100100.28
2022-12-13T17:39:50.214Z,100111.66
2022-12-13T17:44:52.624Z,100125.69
2022-12-13T17:49:54.898Z,100134.97
2022-12-13T17:54:57.167Z,100120.91
2022-12-13T18:00:00.370Z,100121.53
2022-12-13T18:05:02.629Z,100092.47
2022-12-13T18:10:05.518Z,100157.50
2022-12-13T18:15:08.361Z,100158.75
2022-12-13T18:20:12.007Z,100136.63
2022-12-13T18:25:14.318Z,100153.94
2022-12-13T18:30:16.681Z,100191.81
2022-12-13T18:35:19.503Z,100175.22
2022-12-13T18:40:21.779Z,100168.38
2022-12-13T18:45:24.028Z,100189.50
2022-12-13T18:50:26.348Z,100182.03
2022-12-13T18:55:28.826Z,100169.66
2022-12-13T19:00:31.581Z,100186.78
2022-12-13T19:05:34.096Z,100190.84
2022-12-13T19:10:36.513Z,100191.47
2022-12-13T19:15:42.020Z,100179.88
2022-12-13T19:20:48.876Z,100192.44
2022-12-13T19:25:51.387Z,100195.28
2022-12-13T19:30:53.750Z,100172.63
2022-12-13T19:35:55.984Z,100194.59
2022-12-13T19:40:58.319Z,100210.53
2022-12-13T19:46:01.842Z,100144.31
2022-12-13T19:51:07.416Z,100221.34
2022-12-13T19:56:14.287Z,100199.56
2022-12-13T20:01:17.902Z,100192.00
2022-12-13T20:06:23.312Z,100214.97
2022-12-13T20:11:25.719Z,100210.47
2022-12-13T20:16:31.068Z,100173.53
2022-12-13T20:21:33.546Z,100182.44
2022-12-13T20:26:36.110Z,100169.38
2022-12-13T20:31:40.421Z,100145.88
2022-12-13T20:36:43.735Z,100210.53
2022-12-13T20:41:45.968Z,100207.34
2022-12-13T20:46:48.346Z,100218.69
2022-12-13T20:51:51.058Z,100226.88
2022-12-13T20:56:53.401Z,100240.97
2022-12-13T21:01:55.737Z,100240.13
2022-12-13T21:06:58.906Z,100230.81
2022-12-13T21:12:01.179Z,100240.34
2022-12-13T21:17:05.307Z,100219.03
2022-12-13T21:22:07.617Z,100226.66
2022-12-13T21:27:09.902Z,100241.63
2022-12-13T21:32:12.195Z,100243.03
2022-12-13T21:37:14.629Z,100244.69
2022-12-13T21:42:16.913Z,100233.97
2022-12-13T21:47:19.858Z,100232.31
2022-12-13T21:52:24.492Z,100229.28
2022-12-13T21:57:45.151Z,100243.47
2022-12-13T22:02:47.567Z,100231.84
2022-12-13T22:07:52.245Z,100235.72
2022-12-13T22:12:54.594Z,100233.97
2022-12-13T22:17:58.454Z,100236.06
2022-12-13T22:23:00.817Z,100217.13
2022-12-13T22:28:03.146Z,100233.88
2022-12-13T22:33:05.444Z,100224.78
2022-12-13T22:38:07.961Z,100242.41
2022-12-13T22:43:10.498Z,100229.00
2022-12-13T22:48:12.902Z,100205.91
2022-12-13T22:53:15.079Z,100212.53
2022-12-13T22:58:17.337Z,100210.41
2022-12-13T23:03:19.616Z,100208.41
2022-12-13T23:08:22.043Z,100219.38
2022-12-13T23:13:24.268Z,100224.66
2022-12-13T23:18:26.826Z,100229.38
2022-12-13T23:23:30.633Z,100234.69
2022-12-13T23:28:32.849Z,100214.78
2022-12-13T23:33:35.986Z,100208.28
2022-12-13T23:38:38.225Z,100221.94
2022-12-13T23:43:41.846Z,100245.56
2022-12-13T23:48:44.743Z,100261.72
2022-12-13T23:53:47.309Z,100257.28
2022-12-13T23:58:52.459Z,100260.16
